AirNav   Pilot Hours Calculator
 
 1238 users online  

23OH Joint Township Memorial Hospital Heliport
St. Marys, Ohio, USA

GOING TO ST. MARYS?


FAA INFORMATION EFFECTIVE 22 APRIL 2021

Location

FAA Identifier: 23OH
Lat/Long: 40-32-40.7866N 084-22-20.5830W
40-32.679777N 084-22.343050W
40.5446629,-84.3723842
(estimated)
Elevation: 894 ft. / 272 m (estimated)
From city: 1 mile E of ST. MARYS, OH
Time zone: UTC -4 (UTC -5 during Standard Time)
Zip code: 45885

Heliport Operations

Heliport use: Private use. Permission required prior to landing
Activation date: 06/2015
Control tower: no
ARTCC: INDIANAPOLIS CENTER
FSS: CLEVELAND FLIGHT SERVICE STATION
Attendance: UNATNDD
Wind indicator: lighted
Segmented circle: no

Heliport Communications

WX AWOS-3PT at AXV (5 nm SE): 128.325 (419-753-2821)
WX ASOS at AOH (19 nm NE): 128.725 (419-224-6098)

Nearby radio navigation aids

VOR radial/distance  VOR name  Freq  Var
RODr321/21.5ROSEWOOD VORTAC117.5005W
DQNr003/31.7DAYTON VOR/DME114.5001W
FBCr231/37.3FLAG CITY VORTAC108.2002W

Heliport Services

Runway Information

Helipad H1

Dimensions: 40 x 40 ft. / 12 x 12 m
Surface: concrete/gravel
Runway edge lights: PERI
Latitude: 40-32.679777N
Longitude: 084-22.343050W
Traffic pattern: leftleft

Heliport Ownership and Management from official FAA records

Ownership: Privately-owned
Owner: JOINT TOWNSHIP MEMORIAL HOSPITAL
200 SAINT CLAIRE AVE
SAINT MARYS, OH 45885-2400
Phone 419-394-3335
Manager: BETH CALCIDISE
1 WYOMING ST
DAYTON, OH 45409-2722
Phone 937-208-4347
ADNL CTC JASON BROWN 419-394-3387 EXT 3501; JASBROWN@JTDMH.ORG.

Additional Remarks

FOR CD CTC INDIANAPOLIS ARTCC AT 317-247-2411.

Instrument Procedures

There are no published instrument procedures at 23OH.

Some nearby airports with instrument procedures:

KAXV - Neil Armstrong Airport (5 nm SE)
KCQA - Lakefield Airport (9 nm SW)
KAOH - Lima Allen County Airport (19 nm NE)
KSCA - Sidney Municipal Airport (21 nm SE)
KVES - Darke County Airport (22 nm S)
 
Loc | Ops | Rwys | IFR | FBO | Links
Com | Nav | Svcs | Stats | Notes
Aerial photo
No photo
 
Airport distance calculator
Flying to Joint Township Memorial Hospital Heliport? Find the distance to fly.

From to 23OH

Sunrise and sunset
Times for 05-May-2021
 Local
(UTC-4)
 Zulu
(UTC)
Morning civil twilight06:0210:02
Sunrise06:3210:32
Sunset20:3600:36
Evening civil twilight21:0601:06

Current date and time
Zulu (UTC)  05-May-2021 23:03:48
Local (UTC-4)  05-May-2021 19:03:48
 
METAR
KAXV 
5nm SE 
052255Z AUTO 33008KT 10SM SCT060 12/01 A3007 RMK AO2
KAOH 
19nm NE 
052253Z AUTO 34008KT 10SM BKN060 13/02 A3007 RMK AO2 SLP186 T01280022
TAF
KDAY 
39nm S 
052035Z 0521/0618 33012KT P6SM SCT050 FM060400 VRB04KT P6SM FEW250 FM061200 20006KT P6SM SCT150
KFDY 
43nm NE 
051728Z 0518/0618 34012G20KT P6SM BKN035 FM052100 33010KT P6SM SCT200 FM060200 VRB04KT P6SM SCT200 FM061000 17006KT P6SM BKN100
KFWA 
45nm NW 
051720Z 0518/0618 33015KT P6SM SCT035 BKN250 FM052300 VRB03KT P6SM SKC FM061500 15005KT P6SM BKN120
KFFO 
46nm S 
051900Z 0519/0701 33010G15KT 9999 BKN040 QNH3001INS BECMG 0523/0524 31009KT 9999 SCT030 SCT200 QNH3005INS BECMG 0608/0609 VRB06KT 8000 BR FEW140 BKN200 QNH3011INS BECMG 0612/0613 23009KT 9999 NSW SCT050 BKN120 BKN200 QNH3006INS BECMG 0620/0621 24009KT 9999 VCSH BKN050 OVC090 610609 QNH3003INS BECMG 0623/0624 29012KT 6000 -SHRA SCT015 OVC025 610509 QNH3000INS TX16/0619Z TN04/0611Z
NOTAMs
Click for the latest NOTAMs
NOTAMs are issued by the DoD/FAA and will open in a separate window not controlled by AirNav.

 

 
 

Would you like to see your business listed on this page?

 If your business provides an interesting product or service to pilots, flight crews, aircraft, or users of the Joint Township Memorial Hospital Heliport, you should consider listing it here.  To start the listing process, click on the button below
 
Add a business
 

Other Pages about Joint Township Memorial Hospital Heliport

Update a link
 
Copyright © AirNav, LLC. All rights reserved. Privacy Policy  Contact